Pagrindinis puslapis
METAR-TAF:

METAR-TAF

Oro uostai :

Portorož, Slovėnija

platuma: 45-31N, ilguma: 013-34E, Aukštis: 95 m

Dabartinis oras

Ataskaita buvo paskelbta 34 minutes, ne 23:30 UTC
Vėjas 6 kt iš Rytų/Pietryčių
Temperatūra 6°C
Drėgmė 52%
Slėgis 1028 hPa
Matomumas 10 km arba daugiau

METAR: LJPZ 072330Z AUTO 12006KT 9999 NCD 06/M03 Q1028

Laikas: 02:04 (00:04 UTC)

Prognozė

Ataskaita buvo paskelbta 1 valandą ir 4 minutes, ne 23:00 UTC
Prognozė galioja nuo 08 metu 00 UTC su 08 metu 09 UTC
Vėjas 5 kt iš Rytų/Pietryčių
Matomumas 10 km arba daugiau
nėra debesų žemiau 1500 m ir nėra kamuolinių lietaus debesų

TAF: LJPZ 072300Z 0800/0809 12005KT CAVOK

Orai ataskaitas ir orų prognozės (METAR, TAF).

turimą stotys yra geltonos ir raudonos taškus žemėlapyje.

Perkelti pele per norėdami pamatyti stoties vardą.

Tada spustelėkite, norėdami matyti oro stebėjimo ir prognozės.

Norėdami pakeisti žemėlapį: spustelėkite ant žalios mygtukų su juodo kryžiaus žemyn,; žalią mygtuką su brūkšneliu, jei norite nutolinti; arba žalių rodyklių gretimoms žemėlapius.


METAR-TAF: